sensor_id;sensor_type;location;lat;lon;timestamp;P1;durP1;ratioP1;P2;durP2;ratioP2
9997;SDS011;5038;53.064;8.624;2023-02-01T00:00:53;19.20;;;6.70;;
9997;SDS011;5038;53.064;8.624;2023-02-01T00:03:22;14.93;;;5.53;;
9997;SDS011;5038;53.064;8.624;2023-02-01T00:05:57;24.83;;;6.63;;
9997;SDS011;5038;53.064;8.624;2023-02-01T00:08:25;20.57;;;6.47;;
9997;SDS011;5038;53.064;8.624;2023-02-01T00:11:00;17.33;;;6.33;;
9997;SDS011;5038;53.064;8.624;2023-02-01T00:13:28;18.53;;;6.03;;
9997;SDS011;5038;53.064;8.624;2023-02-01T00:16:03;22.20;;;6.80;;
9997;SDS011;5038;53.064;8.624;2023-02-01T00:18:34;20.17;;;5.83;;
9997;SDS011;5038;53.064;8.624;2023-02-01T00:21:03;28.73;;;6.67;;
9997;SDS011;5038;53.064;8.624;2023-02-01T00:23:32;21.40;;;6.97;;
9997;SDS011;5038;53.064;8.624;2023-02-01T00:26:01;19.30;;;6.60;;
9997;SDS011;5038;53.064;8.624;2023-02-01T00:28:30;20.47;;;5.80;;
9997;SDS011;5038;53.064;8.624;2023-02-01T00:30:58;18.17;;;6.50;;
9997;SDS011;5038;53.064;8.624;2023-02-01T00:33:27;21.47;;;6.50;;
9997;SDS011;5038;53.064;8.624;2023-02-01T00:35:57;17.90;;;6.03;;
9997;SDS011;5038;53.064;8.624;2023-02-01T00:38:25;19.80;;;5.83;;
9997;SDS011;5038;53.064;8.624;2023-02-01T00:40:54;26.27;;;7.03;;
9997;SDS011;5038;53.064;8.624;2023-02-01T00:43:22;21.73;;;6.63;;
9997;SDS011;5038;53.064;8.624;2023-02-01T00:45:50;23.70;;;7.20;;
9997;SDS011;5038;53.064;8.624;2023-02-01T00:48:18;24.27;;;7.03;;
9997;SDS011;5038;53.064;8.624;2023-02-01T00:50:46;20.50;;;6.60;;
9997;SDS011;5038;53.064;8.624;2023-02-01T00:53:17;23.93;;;6.70;;
9997;SDS011;5038;53.064;8.624;2023-02-01T00:55:45;20.90;;;6.80;;
9997;SDS011;5038;53.064;8.624;2023-02-01T00:58:13;19.13;;;6.00;;
9997;SDS011;5038;53.064;8.624;2023-02-01T01:00:42;18.13;;;6.50;;
9997;SDS011;5038;53.064;8.624;2023-02-01T01:03:10;19.47;;;7.00;;
9997;SDS011;5038;53.064;8.624;2023-02-01T01:05:44;19.10;;;6.27;;
9997;SDS011;5038;53.064;8.624;2023-02-01T01:08:13;20.30;;;6.63;;
9997;SDS011;5038;53.064;8.624;2023-02-01T01:10:43;21.47;;;7.10;;
9997;SDS011;5038;53.064;8.624;2023-02-01T01:13:11;20.20;;;6.20;;
9997;SDS011;5038;53.064;8.624;2023-02-01T01:15:39;19.33;;;6.33;;
9997;SDS011;5038;53.064;8.624;2023-02-01T01:18:10;20.00;;;6.80;;
9997;SDS011;5038;53.064;8.624;2023-02-01T01:20:39;21.27;;;6.53;;
9997;SDS011;5038;53.064;8.624;2023-02-01T01:23:08;18.17;;;5.70;;
9997;SDS011;5038;53.064;8.624;2023-02-01T01:25:37;17.90;;;5.53;;
9997;SDS011;5038;53.064;8.624;2023-02-01T01:28:07;18.10;;;6.27;;
9997;SDS011;5038;53.064;8.624;2023-02-01T01:30:35;18.73;;;5.40;;
9997;SDS011;5038;53.064;8.624;2023-02-01T01:33:03;21.70;;;6.43;;
9997;SDS011;5038;53.064;8.624;2023-02-01T01:35:31;17.90;;;6.10;;
9997;SDS011;5038;53.064;8.624;2023-02-01T01:38:00;15.57;;;5.40;;
9997;SDS011;5038;53.064;8.624;2023-02-01T01:40:30;21.40;;;7.07;;
9997;SDS011;5038;53.064;8.624;2023-02-01T01:42:58;15.57;;;5.90;;
9997;SDS011;5038;53.064;8.624;2023-02-01T01:45:29;18.17;;;5.87;;
9997;SDS011;5038;53.064;8.624;2023-02-01T01:47:59;21.23;;;6.63;;
9997;SDS011;5038;53.064;8.624;2023-02-01T01:50:32;18.73;;;6.10;;
9997;SDS011;5038;53.064;8.624;2023-02-01T01:53:05;13.70;;;5.00;;
9997;SDS011;5038;53.064;8.624;2023-02-01T01:55:37;22.30;;;7.10;;
9997;SDS011;5038;53.064;8.624;2023-02-01T01:58:10;18.93;;;5.90;;
9997;SDS011;5038;53.064;8.624;2023-02-01T02:00:43;13.40;;;5.00;;
9997;SDS011;5038;53.064;8.624;2023-02-01T02:03:14;15.07;;;6.07;;
9997;SDS011;5038;53.064;8.624;2023-02-01T02:05:45;18.30;;;6.30;;
9997;SDS011;5038;53.064;8.624;2023-02-01T02:08:15;14.87;;;5.17;;
9997;SDS011;5038;53.064;8.624;2023-02-01T02:10:44;20.27;;;6.00;;
9997;SDS011;5038;53.064;8.624;2023-02-01T02:13:27;18.53;;;6.63;;
9997;SDS011;5038;53.064;8.624;2023-02-01T02:16:05;20.70;;;6.47;;
9997;SDS011;5038;53.064;8.624;2023-02-01T02:18:47;24.57;;;7.03;;
9997;SDS011;5038;53.064;8.624;2023-02-01T02:21:26;24.00;;;6.27;;
9997;SDS011;5038;53.064;8.624;2023-02-01T02:24:30;17.63;;;6.17;;
9997;SDS011;5038;53.064;8.624;2023-02-01T02:27:11;17.20;;;7.20;;
9997;SDS011;5038;53.064;8.624;2023-02-01T02:36:01;20.53;;;6.93;;
9997;SDS011;5038;53.064;8.624;2023-02-01T02:38:39;19.67;;;6.97;;
9997;SDS011;5038;53.064;8.624;2023-02-01T02:41:13;18.13;;;6.63;;
9997;SDS011;5038;53.064;8.624;2023-02-01T02:44:08;19.00;;;6.40;;
9997;SDS011;5038;53.064;8.624;2023-02-01T02:46:59;16.90;;;5.37;;
9997;SDS011;5038;53.064;8.624;2023-02-01T02:49:54;17.53;;;6.27;;
9997;SDS011;5038;53.064;8.624;2023-02-01T02:52:47;16.67;;;5.70;;
9997;SDS011;5038;53.064;8.624;2023-02-01T02:55:37;18.50;;;5.93;;
9997;SDS011;5038;53.064;8.624;2023-02-01T02:58:07;14.83;;;5.30;;
9997;SDS011;5038;53.064;8.624;2023-02-01T03:00:55;18.30;;;6.20;;
9997;SDS011;5038;53.064;8.624;2023-02-01T03:03:42;18.87;;;5.70;;
9997;SDS011;5038;53.064;8.624;2023-02-01T03:06:39;20.03;;;6.43;;
9997;SDS011;5038;53.064;8.624;2023-02-01T03:09:08;15.90;;;6.30;;
9997;SDS011;5038;53.064;8.624;2023-02-01T03:11:40;22.00;;;7.33;;
9997;SDS011;5038;53.064;8.624;2023-02-01T03:14:30;22.33;;;7.13;;
9997;SDS011;5038;53.064;8.624;2023-02-01T03:17:01;21.23;;;6.07;;
9997;SDS011;5038;53.064;8.624;2023-02-01T03:19:35;19.20;;;5.93;;
9997;SDS011;5038;53.064;8.624;2023-02-01T03:22:12;19.47;;;6.47;;
9997;SDS011;5038;53.064;8.624;2023-02-01T03:24:43;19.87;;;6.60;;
9997;SDS011;5038;53.064;8.624;2023-02-01T03:27:15;19.30;;;6.40;;
9997;SDS011;5038;53.064;8.624;2023-02-01T03:29:49;16.40;;;6.20;;
9997;SDS011;5038;53.064;8.624;2023-02-01T03:32:22;21.43;;;6.60;;
9997;SDS011;5038;53.064;8.624;2023-02-01T03:34:50;20.80;;;5.53;;
9997;SDS011;5038;53.064;8.624;2023-02-01T03:37:22;14.23;;;5.67;;
9997;SDS011;5038;53.064;8.624;2023-02-01T03:39:53;17.77;;;6.13;;
9997;SDS011;5038;53.064;8.624;2023-02-01T03:42:32;22.10;;;6.53;;
9997;SDS011;5038;53.064;8.624;2023-02-01T03:45:06;17.57;;;5.17;;
9997;SDS011;5038;53.064;8.624;2023-02-01T03:47:41;15.20;;;5.77;;
9997;SDS011;5038;53.064;8.624;2023-02-01T03:50:14;16.77;;;4.77;;
9997;SDS011;5038;53.064;8.624;2023-02-01T03:52:47;12.57;;;4.23;;
9997;SDS011;5038;53.064;8.624;2023-02-01T03:55:19;18.40;;;4.33;;
9997;SDS011;5038;53.064;8.624;2023-02-01T03:57:51;13.10;;;4.60;;
9997;SDS011;5038;53.064;8.624;2023-02-01T04:00:24;19.87;;;5.47;;
9997;SDS011;5038;53.064;8.624;2023-02-01T04:02:55;12.20;;;5.90;;
9997;SDS011;5038;53.064;8.624;2023-02-01T04:05:23;20.90;;;6.03;;
9997;SDS011;5038;53.064;8.624;2023-02-01T04:07:58;14.37;;;5.20;;
9997;SDS011;5038;53.064;8.624;2023-02-01T04:10:26;15.53;;;5.30;;
9997;SDS011;5038;53.064;8.624;2023-02-01T04:12:54;18.40;;;5.67;;
9997;SDS011;5038;53.064;8.624;2023-02-01T04:15:23;17.37;;;6.20;;
9997;SDS011;5038;53.064;8.624;2023-02-01T04:17:51;15.57;;;6.33;;
9997;SDS011;5038;53.064;8.624;2023-02-01T04:20:19;23.07;;;7.17;;
9997;SDS011;5038;53.064;8.624;2023-02-01T04:22:48;17.50;;;6.00;;
9997;SDS011;5038;53.064;8.624;2023-02-01T04:25:17;21.50;;;6.40;;
9997;SDS011;5038;53.064;8.624;2023-02-01T04:27:46;16.20;;;6.17;;
9997;SDS011;5038;53.064;8.624;2023-02-01T04:30:15;26.87;;;6.87;;
9997;SDS011;5038;53.064;8.624;2023-02-01T04:32:43;19.87;;;5.50;;
9997;SDS011;5038;53.064;8.624;2023-02-01T04:35:11;16.93;;;6.10;;
9997;SDS011;5038;53.064;8.624;2023-02-01T04:37:40;14.57;;;5.40;;
9997;SDS011;5038;53.064;8.624;2023-02-01T04:40:08;15.60;;;6.60;;
9997;SDS011;5038;53.064;8.624;2023-02-01T04:42:38;16.70;;;7.20;;
9997;SDS011;5038;53.064;8.624;2023-02-01T04:45:07;17.37;;;6.33;;
9997;SDS011;5038;53.064;8.624;2023-02-01T04:47:35;16.73;;;6.53;;
9997;SDS011;5038;53.064;8.624;2023-02-01T04:50:04;17.87;;;6.70;;
9997;SDS011;5038;53.064;8.624;2023-02-01T04:52:34;22.13;;;7.03;;
9997;SDS011;5038;53.064;8.624;2023-02-01T04:55:02;17.47;;;6.80;;
9997;SDS011;5038;53.064;8.624;2023-02-01T04:57:30;20.50;;;7.60;;
9997;SDS011;5038;53.064;8.624;2023-02-01T05:00:00;19.43;;;7.47;;
9997;SDS011;5038;53.064;8.624;2023-02-01T05:02:28;18.27;;;6.70;;
9997;SDS011;5038;53.064;8.624;2023-02-01T05:04:58;16.17;;;5.80;;
9997;SDS011;5038;53.064;8.624;2023-02-01T05:07:26;17.60;;;7.53;;
9997;SDS011;5038;53.064;8.624;2023-02-01T05:09:54;15.73;;;6.10;;
9997;SDS011;5038;53.064;8.624;2023-02-01T05:12:22;23.87;;;7.33;;
9997;SDS011;5038;53.064;8.624;2023-02-01T05:15:09;14.43;;;6.20;;
9997;SDS011;5038;53.064;8.624;2023-02-01T05:17:37;19.73;;;7.53;;
9997;SDS011;5038;53.064;8.624;2023-02-01T05:20:07;18.83;;;6.03;;
9997;SDS011;5038;53.064;8.624;2023-02-01T05:22:36;13.40;;;5.60;;
9997;SDS011;5038;53.064;8.624;2023-02-01T05:25:04;20.47;;;6.90;;
9997;SDS011;5038;53.064;8.624;2023-02-01T05:27:33;14.20;;;5.50;;
9997;SDS011;5038;53.064;8.624;2023-02-01T05:30:02;13.27;;;5.30;;
9997;SDS011;5038;53.064;8.624;2023-02-01T05:32:32;16.90;;;5.70;;
9997;SDS011;5038;53.064;8.624;2023-02-01T05:35:01;16.07;;;6.40;;
9997;SDS011;5038;53.064;8.624;2023-02-01T05:37:29;14.97;;;5.40;;
9997;SDS011;5038;53.064;8.624;2023-02-01T05:39:57;14.27;;;5.03;;
9997;SDS011;5038;53.064;8.624;2023-02-01T05:42:25;11.60;;;5.13;;
9997;SDS011;5038;53.064;8.624;2023-02-01T05:44:53;11.80;;;4.93;;
9997;SDS011;5038;53.064;8.624;2023-02-01T05:47:21;12.43;;;4.67;;
9997;SDS011;5038;53.064;8.624;2023-02-01T05:49:51;13.37;;;4.70;;
9997;SDS011;5038;53.064;8.624;2023-02-01T05:52:19;12.53;;;5.43;;
9997;SDS011;5038;53.064;8.624;2023-02-01T05:54:47;11.23;;;4.97;;
9997;SDS011;5038;53.064;8.624;2023-02-01T05:57:15;12.50;;;5.40;;
9997;SDS011;5038;53.064;8.624;2023-02-01T05:59:43;15.63;;;5.00;;
9997;SDS011;5038;53.064;8.624;2023-02-01T06:02:11;15.50;;;5.20;;
9997;SDS011;5038;53.064;8.624;2023-02-01T06:04:40;15.40;;;5.97;;
9997;SDS011;5038;53.064;8.624;2023-02-01T06:07:09;17.63;;;6.33;;
9997;SDS011;5038;53.064;8.624;2023-02-01T06:09:37;18.73;;;6.33;;
9997;SDS011;5038;53.064;8.624;2023-02-01T06:12:06;16.17;;;5.87;;
9997;SDS011;5038;53.064;8.624;2023-02-01T06:14:34;17.10;;;6.73;;
9997;SDS011;5038;53.064;8.624;2023-02-01T06:17:03;17.80;;;6.70;;
9997;SDS011;5038;53.064;8.624;2023-02-01T06:19:31;17.73;;;6.37;;
9997;SDS011;5038;53.064;8.624;2023-02-01T06:22:00;15.43;;;6.33;;
9997;SDS011;5038;53.064;8.624;2023-02-01T06:24:29;14.60;;;6.27;;
9997;SDS011;5038;53.064;8.624;2023-02-01T06:26:57;12.07;;;5.50;;
9997;SDS011;5038;53.064;8.624;2023-02-01T06:29:25;17.73;;;6.67;;
9997;SDS011;5038;53.064;8.624;2023-02-01T06:31:53;17.70;;;6.27;;
9997;SDS011;5038;53.064;8.624;2023-02-01T06:34:22;18.83;;;6.40;;
9997;SDS011;5038;53.064;8.624;2023-02-01T06:36:50;15.23;;;5.47;;
9997;SDS011;5038;53.064;8.624;2023-02-01T06:39:18;16.70;;;5.77;;
9997;SDS011;5038;53.064;8.624;2023-02-01T06:41:48;12.77;;;4.87;;
9997;SDS011;5038;53.064;8.624;2023-02-01T06:44:16;16.90;;;5.30;;
9997;SDS011;5038;53.064;8.624;2023-02-01T06:46:44;13.70;;;5.50;;
9997;SDS011;5038;53.064;8.624;2023-02-01T06:49:13;14.40;;;5.80;;
9997;SDS011;5038;53.064;8.624;2023-02-01T06:51:43;16.33;;;4.90;;
9997;SDS011;5038;53.064;8.624;2023-02-01T06:54:11;13.20;;;4.57;;
9997;SDS011;5038;53.064;8.624;2023-02-01T06:56:39;15.47;;;4.87;;
9997;SDS011;5038;53.064;8.624;2023-02-01T06:59:09;12.10;;;4.70;;
9997;SDS011;5038;53.064;8.624;2023-02-01T07:01:41;14.07;;;5.13;;
9997;SDS011;5038;53.064;8.624;2023-02-01T07:04:09;17.17;;;5.20;;
9997;SDS011;5038;53.064;8.624;2023-02-01T07:06:38;14.33;;;4.83;;
9997;SDS011;5038;53.064;8.624;2023-02-01T07:09:07;14.63;;;5.70;;
9997;SDS011;5038;53.064;8.624;2023-02-01T07:11:35;18.50;;;5.83;;
9997;SDS011;5038;53.064;8.624;2023-02-01T07:14:08;15.33;;;5.70;;
9997;SDS011;5038;53.064;8.624;2023-02-01T07:16:36;18.60;;;6.30;;
9997;SDS011;5038;53.064;8.624;2023-02-01T07:19:05;17.23;;;6.00;;
9997;SDS011;5038;53.064;8.624;2023-02-01T07:21:33;16.60;;;4.97;;
9997;SDS011;5038;53.064;8.624;2023-02-01T07:24:02;19.17;;;5.73;;
9997;SDS011;5038;53.064;8.624;2023-02-01T07:26:30;14.17;;;5.83;;
9997;SDS011;5038;53.064;8.624;2023-02-01T07:28:59;15.97;;;5.27;;
9997;SDS011;5038;53.064;8.624;2023-02-01T07:31:28;17.20;;;5.87;;
9997;SDS011;5038;53.064;8.624;2023-02-01T07:33:56;16.37;;;6.43;;
9997;SDS011;5038;53.064;8.624;2023-02-01T07:36:24;19.20;;;6.30;;
9997;SDS011;5038;53.064;8.624;2023-02-01T07:38:53;13.80;;;5.47;;
9997;SDS011;5038;53.064;8.624;2023-02-01T07:41:22;16.20;;;5.93;;
9997;SDS011;5038;53.064;8.624;2023-02-01T07:43:51;16.47;;;5.37;;
9997;SDS011;5038;53.064;8.624;2023-02-01T07:46:20;19.30;;;5.50;;
9997;SDS011;5038;53.064;8.624;2023-02-01T07:48:50;17.53;;;6.00;;
9997;SDS011;5038;53.064;8.624;2023-02-01T07:51:18;13.13;;;5.40;;
9997;SDS011;5038;53.064;8.624;2023-02-01T07:53:46;15.40;;;4.90;;
9997;SDS011;5038;53.064;8.624;2023-02-01T07:56:15;15.10;;;5.37;;
9997;SDS011;5038;53.064;8.624;2023-02-01T07:58:46;17.57;;;6.53;;
9997;SDS011;5038;53.064;8.624;2023-02-01T08:01:15;12.70;;;5.00;;
9997;SDS011;5038;53.064;8.624;2023-02-01T08:03:46;14.53;;;5.97;;
9997;SDS011;5038;53.064;8.624;2023-02-01T08:06:16;16.03;;;5.60;;
9997;SDS011;5038;53.064;8.624;2023-02-01T08:08:46;15.33;;;5.00;;
9997;SDS011;5038;53.064;8.624;2023-02-01T08:11:15;12.60;;;4.63;;
9997;SDS011;5038;53.064;8.624;2023-02-01T08:13:44;15.20;;;4.87;;
9997;SDS011;5038;53.064;8.624;2023-02-01T08:16:13;16.30;;;5.30;;
9997;SDS011;5038;53.064;8.624;2023-02-01T08:18:42;17.63;;;5.10;;
9997;SDS011;5038;53.064;8.624;2023-02-01T08:21:11;14.63;;;5.17;;
9997;SDS011;5038;53.064;8.624;2023-02-01T08:23:43;17.00;;;5.40;;
9997;SDS011;5038;53.064;8.624;2023-02-01T08:26:12;15.97;;;5.17;;
9997;SDS011;5038;53.064;8.624;2023-02-01T08:28:45;14.30;;;5.07;;
9997;SDS011;5038;53.064;8.624;2023-02-01T08:31:16;15.50;;;5.70;;
9997;SDS011;5038;53.064;8.624;2023-02-01T08:33:47;15.00;;;5.23;;
9997;SDS011;5038;53.064;8.624;2023-02-01T08:36:17;16.33;;;5.50;;
9997;SDS011;5038;53.064;8.624;2023-02-01T08:38:47;16.50;;;5.23;;
9997;SDS011;5038;53.064;8.624;2023-02-01T08:41:16;17.83;;;6.23;;
9997;SDS011;5038;53.064;8.624;2023-02-01T08:43:46;20.93;;;5.57;;
9997;SDS011;5038;53.064;8.624;2023-02-01T08:46:15;12.20;;;4.73;;
9997;SDS011;5038;53.064;8.624;2023-02-01T08:48:45;15.50;;;5.20;;
9997;SDS011;5038;53.064;8.624;2023-02-01T08:51:14;18.13;;;5.17;;
9997;SDS011;5038;53.064;8.624;2023-02-01T08:53:43;13.20;;;4.50;;
9997;SDS011;5038;53.064;8.624;2023-02-01T08:56:13;14.23;;;5.53;;
9997;SDS011;5038;53.064;8.624;2023-02-01T08:58:43;11.30;;;5.00;;
9997;SDS011;5038;53.064;8.624;2023-02-01T09:01:12;15.00;;;5.40;;
9997;SDS011;5038;53.064;8.624;2023-02-01T09:03:42;16.13;;;5.40;;
9997;SDS011;5038;53.064;8.624;2023-02-01T09:06:10;14.97;;;5.90;;
9997;SDS011;5038;53.064;8.624;2023-02-01T09:08:41;18.90;;;6.13;;
9997;SDS011;5038;53.064;8.624;2023-02-01T09:11:10;16.90;;;5.30;;
9997;SDS011;5038;53.064;8.624;2023-02-01T09:13:41;17.07;;;5.03;;
9997;SDS011;5038;53.064;8.624;2023-02-01T09:16:10;16.67;;;5.17;;
9997;SDS011;5038;53.064;8.624;2023-02-01T09:18:39;14.43;;;5.60;;
9997;SDS011;5038;53.064;8.624;2023-02-01T09:21:27;15.77;;;5.27;;
9997;SDS011;5038;53.064;8.624;2023-02-01T09:23:55;15.70;;;4.73;;
9997;SDS011;5038;53.064;8.624;2023-02-01T09:26:25;17.77;;;5.30;;
9997;SDS011;5038;53.064;8.624;2023-02-01T09:28:58;18.80;;;6.67;;
9997;SDS011;5038;53.064;8.624;2023-02-01T09:31:27;13.67;;;5.00;;
9997;SDS011;5038;53.064;8.624;2023-02-01T09:33:56;17.10;;;5.47;;
9997;SDS011;5038;53.064;8.624;2023-02-01T09:36:24;18.27;;;5.60;;
9997;SDS011;5038;53.064;8.624;2023-02-01T09:38:54;14.93;;;5.30;;
9997;SDS011;5038;53.064;8.624;2023-02-01T09:41:29;22.03;;;6.73;;
9997;SDS011;5038;53.064;8.624;2023-02-01T09:44:08;17.30;;;6.07;;
9997;SDS011;5038;53.064;8.624;2023-02-01T09:46:45;14.00;;;4.80;;
9997;SDS011;5038;53.064;8.624;2023-02-01T09:49:15;12.50;;;4.70;;
9997;SDS011;5038;53.064;8.624;2023-02-01T09:51:49;14.63;;;5.77;;
9997;SDS011;5038;53.064;8.624;2023-02-01T09:54:20;18.00;;;6.00;;
9997;SDS011;5038;53.064;8.624;2023-02-01T09:56:53;19.20;;;6.23;;
9997;SDS011;5038;53.064;8.624;2023-02-01T09:59:26;15.33;;;4.90;;
9997;SDS011;5038;53.064;8.624;2023-02-01T10:02:00;15.67;;;6.13;;
9997;SDS011;5038;53.064;8.624;2023-02-01T10:04:30;14.17;;;5.63;;
9997;SDS011;5038;53.064;8.624;2023-02-01T10:07:02;13.47;;;5.70;;
9997;SDS011;5038;53.064;8.624;2023-02-01T10:09:42;13.77;;;5.10;;
9997;SDS011;5038;53.064;8.624;2023-02-01T10:15:15;15.47;;;5.50;;
9997;SDS011;5038;53.064;8.624;2023-02-01T10:17:58;16.53;;;5.60;;
9997;SDS011;5038;53.064;8.624;2023-02-01T10:20:36;15.27;;;5.37;;
9997;SDS011;5038;53.064;8.624;2023-02-01T10:23:24;15.40;;;5.20;;
9997;SDS011;5038;53.064;8.624;2023-02-01T10:26:01;22.00;;;6.63;;
9997;SDS011;5038;53.064;8.624;2023-02-01T10:28:35;18.80;;;5.30;;
9997;SDS011;5038;53.064;8.624;2023-02-01T10:31:06;16.93;;;5.57;;
9997;SDS011;5038;53.064;8.624;2023-02-01T10:33:38;14.37;;;5.67;;
9997;SDS011;5038;53.064;8.624;2023-02-01T10:36:13;14.97;;;5.33;;
9997;SDS011;5038;53.064;8.624;2023-02-01T10:38:44;13.73;;;5.30;;
9997;SDS011;5038;53.064;8.624;2023-02-01T10:41:13;16.10;;;5.50;;
9997;SDS011;5038;53.064;8.624;2023-02-01T10:43:45;16.37;;;5.73;;
9997;SDS011;5038;53.064;8.624;2023-02-01T10:46:18;18.20;;;5.40;;
9997;SDS011;5038;53.064;8.624;2023-02-01T10:48:46;15.97;;;5.90;;
9997;SDS011;5038;53.064;8.624;2023-02-01T10:51:16;15.53;;;5.60;;
9997;SDS011;5038;53.064;8.624;2023-02-01T10:53:49;16.03;;;5.13;;
9997;SDS011;5038;53.064;8.624;2023-02-01T10:56:21;12.80;;;5.30;;
9997;SDS011;5038;53.064;8.624;2023-02-01T10:58:59;17.23;;;4.90;;
9997;SDS011;5038;53.064;8.624;2023-02-01T11:01:30;11.17;;;4.60;;
9997;SDS011;5038;53.064;8.624;2023-02-01T11:04:02;12.67;;;4.40;;
9997;SDS011;5038;53.064;8.624;2023-02-01T11:06:32;14.80;;;6.00;;
9997;SDS011;5038;53.064;8.624;2023-02-01T11:09:09;11.50;;;4.80;;
9997;SDS011;5038;53.064;8.624;2023-02-01T11:11:53;19.10;;;5.57;;
9997;SDS011;5038;53.064;8.624;2023-02-01T11:14:34;14.80;;;4.97;;
9997;SDS011;5038;53.064;8.624;2023-02-01T11:17:16;15.57;;;4.90;;
9997;SDS011;5038;53.064;8.624;2023-02-01T11:19:59;15.33;;;5.57;;
9997;SDS011;5038;53.064;8.624;2023-02-01T11:22:28;11.73;;;5.53;;
9997;SDS011;5038;53.064;8.624;2023-02-01T11:24:57;13.03;;;4.73;;
9997;SDS011;5038;53.064;8.624;2023-02-01T11:27:27;13.37;;;4.50;;
9997;SDS011;5038;53.064;8.624;2023-02-01T11:29:58;9.30;;;4.00;;
9997;SDS011;5038;53.064;8.624;2023-02-01T11:32:30;15.33;;;4.93;;
9997;SDS011;5038;53.064;8.624;2023-02-01T11:35:00;11.27;;;4.30;;
9997;SDS011;5038;53.064;8.624;2023-02-01T11:37:31;13.93;;;4.50;;
9997;SDS011;5038;53.064;8.624;2023-02-01T11:40:04;10.67;;;4.40;;
9997;SDS011;5038;53.064;8.624;2023-02-01T11:42:55;13.97;;;3.90;;
9997;SDS011;5038;53.064;8.624;2023-02-01T11:45:27;11.57;;;4.00;;
9997;SDS011;5038;53.064;8.624;2023-02-01T11:47:57;9.63;;;4.10;;
9997;SDS011;5038;53.064;8.624;2023-02-01T11:50:29;10.00;;;3.70;;
9997;SDS011;5038;53.064;8.624;2023-02-01T11:53:09;10.73;;;4.57;;
9997;SDS011;5038;53.064;8.624;2023-02-01T11:55:55;8.63;;;3.53;;
9997;SDS011;5038;53.064;8.624;2023-02-01T11:58:34;10.00;;;4.30;;
9997;SDS011;5038;53.064;8.624;2023-02-01T12:01:26;9.27;;;3.70;;
9997;SDS011;5038;53.064;8.624;2023-02-01T12:04:13;13.17;;;4.20;;
9997;SDS011;5038;53.064;8.624;2023-02-01T12:07:04;11.13;;;4.40;;
9997;SDS011;5038;53.064;8.624;2023-02-01T12:09:45;10.17;;;3.80;;
9997;SDS011;5038;53.064;8.624;2023-02-01T12:12:22;6.73;;;3.30;;
9997;SDS011;5038;53.064;8.624;2023-02-01T12:15:01;9.17;;;3.63;;
9997;SDS011;5038;53.064;8.624;2023-02-01T12:17:59;8.93;;;3.03;;
9997;SDS011;5038;53.064;8.624;2023-02-01T12:20:59;4.50;;;1.10;;
9997;SDS011;5038;53.064;8.624;2023-02-01T12:23:39;3.47;;;0.80;;
9997;SDS011;5038;53.064;8.624;2023-02-01T12:26:26;2.40;;;0.70;;
9997;SDS011;5038;53.064;8.624;2023-02-01T12:29:33;2.20;;;0.73;;
9997;SDS011;5038;53.064;8.624;2023-02-01T12:32:18;2.67;;;0.67;;
9997;SDS011;5038;53.064;8.624;2023-02-01T12:35:09;2.40;;;0.70;;
9997;SDS011;5038;53.064;8.624;2023-02-01T12:38:00;2.10;;;0.60;;
9997;SDS011;5038;53.064;8.624;2023-02-01T12:40:43;3.30;;;0.70;;
9997;SDS011;5038;53.064;8.624;2023-02-01T12:43:19;2.80;;;0.73;;
9997;SDS011;5038;53.064;8.624;2023-02-01T12:45:52;2.73;;;0.80;;
9997;SDS011;5038;53.064;8.624;2023-02-01T12:48:27;2.63;;;0.90;;
9997;SDS011;5038;53.064;8.624;2023-02-01T12:51:01;2.20;;;0.80;;
9997;SDS011;5038;53.064;8.624;2023-02-01T12:53:42;2.60;;;1.00;;
9997;SDS011;5038;53.064;8.624;2023-02-01T12:56:15;3.13;;;0.90;;
9997;SDS011;5038;53.064;8.624;2023-02-01T12:58:49;3.73;;;1.20;;
9997;SDS011;5038;53.064;8.624;2023-02-01T13:01:22;4.07;;;1.03;;
9997;SDS011;5038;53.064;8.624;2023-02-01T13:03:57;3.30;;;0.80;;
9997;SDS011;5038;53.064;8.624;2023-02-01T13:06:34;3.30;;;1.20;;
9997;SDS011;5038;53.064;8.624;2023-02-01T13:09:09;3.43;;;0.90;;
9997;SDS011;5038;53.064;8.624;2023-02-01T13:11:43;3.70;;;1.13;;
9997;SDS011;5038;53.064;8.624;2023-02-01T13:14:17;4.27;;;1.57;;
9997;SDS011;5038;53.064;8.624;2023-02-01T13:16:53;4.63;;;1.40;;
9997;SDS011;5038;53.064;8.624;2023-02-01T13:19:28;4.60;;;1.77;;
9997;SDS011;5038;53.064;8.624;2023-02-01T13:22:02;4.87;;;2.50;;
9997;SDS011;5038;53.064;8.624;2023-02-01T13:24:36;8.20;;;2.20;;
9997;SDS011;5038;53.064;8.624;2023-02-01T13:27:10;5.83;;;1.80;;
9997;SDS011;5038;53.064;8.624;2023-02-01T13:29:41;8.87;;;2.03;;
9997;SDS011;5038;53.064;8.624;2023-02-01T13:32:26;5.23;;;1.93;;
9997;SDS011;5038;53.064;8.624;2023-02-01T13:35:41;6.90;;;2.03;;
9997;SDS011;5038;53.064;8.624;2023-02-01T13:38:38;6.00;;;2.00;;
9997;SDS011;5038;53.064;8.624;2023-02-01T13:41:26;7.13;;;1.97;;
9997;SDS011;5038;53.064;8.624;2023-02-01T13:43:57;7.20;;;2.00;;
9997;SDS011;5038;53.064;8.624;2023-02-01T13:46:28;7.93;;;2.70;;
9997;SDS011;5038;53.064;8.624;2023-02-01T13:48:58;6.53;;;2.03;;
9997;SDS011;5038;53.064;8.624;2023-02-01T13:51:32;6.43;;;2.83;;
9997;SDS011;5038;53.064;8.624;2023-02-01T13:54:05;9.07;;;2.23;;
9997;SDS011;5038;53.064;8.624;2023-02-01T13:56:40;6.13;;;2.40;;
9997;SDS011;5038;53.064;8.624;2023-02-01T14:05:12;9.33;;;2.10;;
9997;SDS011;5038;53.064;8.624;2023-02-01T14:08:23;8.70;;;2.70;;
9997;SDS011;5038;53.064;8.624;2023-02-01T14:11:05;9.90;;;2.90;;
9997;SDS011;5038;53.064;8.624;2023-02-01T14:13:33;10.27;;;3.53;;
9997;SDS011;5038;53.064;8.624;2023-02-01T14:16:13;11.47;;;5.23;;
9997;SDS011;5038;53.064;8.624;2023-02-01T14:18:49;8.27;;;4.10;;
9997;SDS011;5038;53.064;8.624;2023-02-01T14:21:28;7.70;;;3.50;;
9997;SDS011;5038;53.064;8.624;2023-02-01T14:23:59;10.40;;;3.47;;
9997;SDS011;5038;53.064;8.624;2023-02-01T14:26:42;12.23;;;3.70;;
9997;SDS011;5038;53.064;8.624;2023-02-01T14:29:18;10.70;;;4.27;;
9997;SDS011;5038;53.064;8.624;2023-02-01T14:31:54;12.13;;;3.90;;
9997;SDS011;5038;53.064;8.624;2023-02-01T14:34:31;12.60;;;3.70;;
9997;SDS011;5038;53.064;8.624;2023-02-01T14:37:09;15.20;;;3.93;;
9997;SDS011;5038;53.064;8.624;2023-02-01T14:39:53;12.83;;;4.20;;
9997;SDS011;5038;53.064;8.624;2023-02-01T14:42:29;14.57;;;4.53;;
9997;SDS011;5038;53.064;8.624;2023-02-01T14:51:09;15.40;;;5.20;;
9997;SDS011;5038;53.064;8.624;2023-02-01T14:53:42;13.93;;;4.93;;
9997;SDS011;5038;53.064;8.624;2023-02-01T14:56:14;16.67;;;5.13;;
9997;SDS011;5038;53.064;8.624;2023-02-01T14:58:49;18.17;;;5.47;;
9997;SDS011;5038;53.064;8.624;2023-02-01T15:01:24;16.83;;;5.67;;
9997;SDS011;5038;53.064;8.624;2023-02-01T15:03:58;16.93;;;5.77;;
9997;SDS011;5038;53.064;8.624;2023-02-01T15:06:32;13.27;;;5.37;;
9997;SDS011;5038;53.064;8.624;2023-02-01T15:09:04;20.30;;;5.47;;
9997;SDS011;5038;53.064;8.624;2023-02-01T15:11:56;18.37;;;7.17;;
9997;SDS011;5038;53.064;8.624;2023-02-01T15:14:28;22.07;;;6.43;;
9997;SDS011;5038;53.064;8.624;2023-02-01T15:16:57;19.17;;;6.60;;
9997;SDS011;5038;53.064;8.624;2023-02-01T15:19:28;22.07;;;6.20;;
9997;SDS011;5038;53.064;8.624;2023-02-01T15:21:58;14.00;;;5.20;;
9997;SDS011;5038;53.064;8.624;2023-02-01T15:24:27;20.93;;;6.40;;
9997;SDS011;5038;53.064;8.624;2023-02-01T15:27:02;17.77;;;5.07;;
9997;SDS011;5038;53.064;8.624;2023-02-01T15:29:32;18.10;;;4.70;;
9997;SDS011;5038;53.064;8.624;2023-02-01T15:32:00;15.97;;;6.00;;
9997;SDS011;5038;53.064;8.624;2023-02-01T15:34:46;17.40;;;6.50;;
9997;SDS011;5038;53.064;8.624;2023-02-01T15:37:16;23.13;;;6.27;;
9997;SDS011;5038;53.064;8.624;2023-02-01T15:40:05;14.60;;;5.47;;
9997;SDS011;5038;53.064;8.624;2023-02-01T15:42:49;14.03;;;5.30;;
9997;SDS011;5038;53.064;8.624;2023-02-01T15:45:21;18.93;;;6.17;;
9997;SDS011;5038;53.064;8.624;2023-02-01T15:47:54;20.00;;;5.10;;
9997;SDS011;5038;53.064;8.624;2023-02-01T15:50:24;17.63;;;5.40;;
9997;SDS011;5038;53.064;8.624;2023-02-01T15:52:54;24.83;;;7.00;;
9997;SDS011;5038;53.064;8.624;2023-02-01T15:55:24;18.47;;;5.20;;
9997;SDS011;5038;53.064;8.624;2023-02-01T15:58:00;17.40;;;5.23;;
9997;SDS011;5038;53.064;8.624;2023-02-01T16:00:40;19.50;;;6.03;;